createdAt,value
2022-10-23T00:00:24.066Z,99887.59
2022-10-23T00:00:55.594Z,99888.19
2022-10-23T00:01:27.031Z,99895.81
2022-10-23T00:01:58.430Z,99899.06
2022-10-23T00:02:29.906Z,99894.19
2022-10-23T00:03:01.357Z,99887.88
2022-10-23T00:03:32.803Z,99888.72
2022-10-23T00:04:04.209Z,99889.22
2022-10-23T00:04:35.654Z,99889.72
2022-10-23T00:05:07.024Z,99891.97
2022-10-23T00:05:38.405Z,99889.72
2022-10-23T00:06:09.843Z,99890.22
2022-10-23T00:06:41.335Z,99894.38
2022-10-23T00:07:12.758Z,99888.91
2022-10-23T00:07:44.248Z,99888.91
2022-10-23T00:08:15.667Z,99890.22
2022-10-23T00:08:47.064Z,99887.50
2022-10-23T00:09:18.443Z,99887.50
2022-10-23T00:09:49.856Z,99890.03
2022-10-23T00:10:21.256Z,99890.84
2022-10-23T00:10:52.678Z,99896.09
2022-10-23T00:11:24.109Z,99895.59
2022-10-23T00:11:55.546Z,99890.41
2022-10-23T00:12:27.026Z,99886.38
2022-10-23T00:12:58.445Z,99894.56
2022-10-23T00:13:29.847Z,99894.38
2022-10-23T00:14:01.352Z,99891.84
2022-10-23T00:14:32.737Z,99882.13
2022-10-23T00:15:04.203Z,99888.41
2022-10-23T00:15:35.610Z,99890.63
2022-10-23T00:16:07.007Z,99883.84
2022-10-23T00:16:38.462Z,99893.47
2022-10-23T00:17:10.031Z,99889.44
2022-10-23T00:17:41.667Z,99889.44
2022-10-23T00:18:13.279Z,99889.72
2022-10-23T00:18:44.682Z,99885.69
2022-10-23T00:19:16.144Z,99890.53
2022-10-23T00:19:47.749Z,99891.56
2022-10-23T00:20:19.199Z,99889.63
2022-10-23T00:20:50.706Z,99891.84
2022-10-23T00:21:22.134Z,99884.88
2022-10-23T00:21:53.557Z,99891.16
2022-10-23T00:22:24.972Z,99891.34
2022-10-23T00:22:56.395Z,99887.59
2022-10-23T00:23:27.834Z,99888.72
2022-10-23T00:23:59.328Z,99887.91
2022-10-23T00:24:30.845Z,99895.31
2022-10-23T00:25:02.348Z,99895.00
2022-10-23T00:25:33.767Z,99891.44
2022-10-23T00:26:05.155Z,99888.22
2022-10-23T00:26:36.605Z,99887.91
2022-10-23T00:27:08.146Z,99891.75
2022-10-23T00:27:39.984Z,99890.34
2022-10-23T00:28:11.574Z,99890.34
2022-10-23T00:28:43.105Z,99899.66
2022-10-23T00:29:14.504Z,99889.84
2022-10-23T00:29:45.898Z,99885.97
2022-10-23T00:30:17.291Z,99894.19
2022-10-23T00:30:48.728Z,99887.59
2022-10-23T00:31:20.197Z,99896.94
2022-10-23T00:31:51.699Z,99889.22
2022-10-23T00:32:23.334Z,99884.06
2022-10-23T00:32:54.763Z,99887.59
2022-10-23T00:33:26.221Z,99885.69
2022-10-23T00:33:57.654Z,99889.22
2022-10-23T00:34:29.072Z,99891.97
2022-10-23T00:35:00.521Z,99890.03
2022-10-23T00:35:31.951Z,99893.88
2022-10-23T00:36:03.326Z,99881.81
2022-10-23T00:36:34.763Z,99887.59
2022-10-23T00:37:06.280Z,99887.28
2022-10-23T00:37:37.749Z,99888.72
2022-10-23T00:38:09.134Z,99889.53
2022-10-23T00:38:40.571Z,99885.97
2022-10-23T00:39:11.994Z,99890.66
2022-10-23T00:39:43.407Z,99896.13
2022-10-23T00:40:14.857Z,99890.94
2022-10-23T00:40:46.273Z,99887.91
2022-10-23T00:41:17.774Z,99896.94
2022-10-23T00:41:49.187Z,99896.94
2022-10-23T00:42:20.707Z,99895.31
2022-10-23T00:42:52.183Z,99898.84
2022-10-23T00:43:23.704Z,99901.59
2022-10-23T00:43:55.165Z,99906.25
2022-10-23T00:44:26.646Z,99897.75
2022-10-23T00:44:58.036Z,99899.66
2022-10-23T00:45:29.460Z,99900.47
2022-10-23T00:46:00.913Z,99898.25
2022-10-23T00:46:32.314Z,99898.56
2022-10-23T00:47:03.737Z,99901.28
2022-10-23T00:47:35.231Z,99903.22
2022-10-23T00:48:06.626Z,99902.41
2022-10-23T00:48:38.062Z,99901.28
2022-10-23T00:49:09.615Z,99904.31
2022-10-23T00:49:42.823Z,99907.88
2022-10-23T00:50:14.451Z,99909.50
2022-10-23T00:50:45.866Z,99900.78
2022-10-23T00:51:17.429Z,99899.66
2022-10-23T00:51:48.880Z,99899.66
2022-10-23T00:52:20.344Z,99900.47
2022-10-23T00:52:51.756Z,99903.50
2022-10-23T00:53:23.215Z,99907.06
2022-10-23T00:54:01.221Z,99899.66
2022-10-23T00:54:44.245Z,99907.88
2022-10-23T00:55:15.666Z,99897.75
2022-10-23T00:55:47.108Z,99895.81
2022-10-23T00:56:18.564Z,99907.06
2022-10-23T00:56:49.977Z,99905.13
2022-10-23T00:57:21.549Z,99908.69
2022-10-23T00:57:52.994Z,99905.44
2022-10-23T00:58:24.346Z,99901.88
2022-10-23T00:58:55.789Z,99907.88
2022-10-23T00:59:27.182Z,99910.09
2022-10-23T00:59:58.632Z,99895.59
2022-10-23T01:00:30.043Z,99898.03
2022-10-23T01:01:01.514Z,99906.25
2022-10-23T01:01:33.107Z,99896.72
2022-10-23T01:02:04.714Z,99903.00
2022-10-23T01:02:36.327Z,99906.56
2022-10-23T01:03:07.753Z,99910.59
2022-10-23T01:03:39.134Z,99903.81
2022-10-23T01:04:10.510Z,99910.09
2022-10-23T01:04:41.994Z,99912.53
2022-10-23T01:05:13.415Z,99912.03
2022-10-23T01:05:44.815Z,99910.09
2022-10-23T01:06:16.286Z,99908.19
2022-10-23T01:06:47.776Z,99918.31
2022-10-23T01:07:19.353Z,99918.81
2022-10-23T01:07:50.829Z,99914.47
2022-10-23T01:08:22.303Z,99913.66
2022-10-23T01:08:53.724Z,99909.28
2022-10-23T01:09:25.140Z,99910.09
2022-10-23T01:09:56.571Z,99914.75
2022-10-23T01:10:27.985Z,99913.66
2022-10-23T01:10:59.480Z,99909.00
2022-10-23T01:11:30.908Z,99907.88
2022-10-23T01:12:02.346Z,99903.22
2022-10-23T01:12:33.776Z,99905.13
2022-10-23T01:13:05.216Z,99905.94
2022-10-23T01:13:36.624Z,99901.59
2022-10-23T01:14:08.081Z,99904.63
2022-10-23T01:14:39.545Z,99907.38
2022-10-23T01:15:11.061Z,99897.84
2022-10-23T01:15:42.489Z,99893.19
2022-10-23T01:16:13.928Z,99902.19
2022-10-23T01:16:45.376Z,99893.19
2022-10-23T01:17:16.814Z,99892.88
2022-10-23T01:17:48.363Z,99903.81
2022-10-23T01:18:20.020Z,99903.50
2022-10-23T01:18:51.436Z,99910.59
2022-10-23T01:19:22.956Z,99902.41
2022-10-23T01:19:54.362Z,99903.81
2022-10-23T01:20:25.806Z,99898.34
2022-10-23T01:20:57.173Z,99899.16
2022-10-23T01:21:28.592Z,99903.00
2022-10-23T01:22:00.054Z,99896.72
2022-10-23T01:22:31.481Z,99901.38
2022-10-23T01:23:02.921Z,99904.94
2022-10-23T01:23:34.306Z,99902.19
2022-10-23T01:24:05.703Z,99899.47
2022-10-23T01:24:37.140Z,99895.91
2022-10-23T01:25:08.594Z,99907.38
2022-10-23T01:25:40.044Z,99893.19
2022-10-23T01:26:11.472Z,99894.81
2022-10-23T01:26:42.868Z,99891.56
2022-10-23T01:27:15.028Z,99891.56
2022-10-23T01:27:46.459Z,99886.91
2022-10-23T01:28:17.920Z,99899.75
2022-10-23T01:28:49.370Z,99892.69
2022-10-23T01:29:20.764Z,99889.13
2022-10-23T01:29:52.177Z,99891.56
2022-10-23T01:30:23.600Z,99899.25
2022-10-23T01:30:55.173Z,99900.06
2022-10-23T01:31:26.681Z,99892.69
2022-10-23T01:31:58.120Z,99899.25
2022-10-23T01:32:29.617Z,99896.53
2022-10-23T01:33:01.048Z,99892.16
2022-10-23T01:33:32.558Z,99884.47
2022-10-23T01:34:04.022Z,99898.97
2022-10-23T01:34:35.413Z,99889.94
2022-10-23T01:35:06.821Z,99899.25
2022-10-23T01:35:38.230Z,99888.00
2022-10-23T01:36:09.655Z,99886.41
2022-10-23T01:36:41.104Z,99889.44
2022-10-23T01:37:12.551Z,99886.69
2022-10-23T01:37:43.989Z,99886.69
2022-10-23T01:38:15.438Z,99887.50
2022-10-23T01:38:46.890Z,99889.44
2022-10-23T01:39:18.327Z,99886.69
2022-10-23T01:39:49.737Z,99884.25
2022-10-23T01:40:21.144Z,99890.53
2022-10-23T01:40:52.552Z,99881.53
2022-10-23T01:41:24.011Z,99888.63
2022-10-23T01:41:55.437Z,99896.03
2022-10-23T01:42:26.875Z,99884.78
2022-10-23T01:42:58.312Z,99885.06
2022-10-23T01:43:29.698Z,99888.63
2022-10-23T01:44:01.161Z,99885.88
2022-10-23T01:44:32.560Z,99883.97
2022-10-23T01:45:03.998Z,99881.53
2022-10-23T01:45:35.539Z,99883.16
2022-10-23T01:46:06.956Z,99876.88
2022-10-23T01:46:38.373Z,99879.91
2022-10-23T01:47:09.890Z,99874.44
2022-10-23T01:47:41.833Z,99879.59
2022-10-23T01:48:13.494Z,99872.50
2022-10-23T01:48:44.885Z,99878.78
2022-10-23T01:49:16.277Z,99878.50
2022-10-23T01:49:47.691Z,99879.59
2022-10-23T01:50:19.132Z,99879.59
2022-10-23T01:50:50.591Z,99883.16
2022-10-23T01:51:22.083Z,99871.09
2022-10-23T01:51:53.496Z,99870.59
2022-10-23T01:52:24.925Z,99873.63
2022-10-23T01:52:56.412Z,99878.78
2022-10-23T01:53:27.853Z,99874.13
2022-10-23T01:53:59.288Z,99874.94
2022-10-23T01:54:30.680Z,99871.41
2022-10-23T01:55:02.129Z,99868.66
2022-10-23T01:55:33.643Z,99876.88
2022-10-23T01:56:05.104Z,99873.31
2022-10-23T01:56:36.517Z,99875.25
2022-10-23T01:57:07.885Z,99874.13
2022-10-23T01:57:39.507Z,99870.28
2022-10-23T01:58:11.139Z,99874.13
2022-10-23T01:58:42.555Z,99860.47
2022-10-23T01:59:13.954Z,99868.66
2022-10-23T01:59:45.336Z,99865.13
2022-10-23T02:00:16.737Z,99865.94
2022-10-23T02:00:48.232Z,99865.13
2022-10-23T02:01:19.737Z,99863.19
2022-10-23T02:01:51.495Z,99863.50
2022-10-23T02:02:23.405Z,99868.66
2022-10-23T02:02:54.987Z,99859.66
2022-10-23T02:03:26.691Z,99858.53
2022-10-23T02:04:30.815Z,99855.50
2022-10-23T02:05:02.534Z,99852.75
2022-10-23T02:05:34.049Z,99855.50
2022-10-23T02:06:05.630Z,99860.16
2022-10-23T02:06:37.123Z,99853.88
2022-10-23T02:07:08.523Z,99852.75
2022-10-23T02:07:40.104Z,99853.56
2022-10-23T02:08:11.882Z,99845.66
2022-10-23T02:08:43.354Z,99840.50
2022-10-23T02:09:14.769Z,99842.13
2022-10-23T02:09:46.155Z,99850.03
2022-10-23T02:10:17.564Z,99847.28
2022-10-23T02:10:48.994Z,99850.31
2022-10-23T02:11:20.435Z,99835.84
2022-10-23T02:11:51.863Z,99845.16
2022-10-23T02:12:23.278Z,99838.88
2022-10-23T02:12:54.778Z,99836.94
2022-10-23T02:13:26.159Z,99844.03
2022-10-23T02:13:57.654Z,99840.81
2022-10-23T02:14:29.099Z,99835.34
2022-10-23T02:15:00.522Z,99835.03
2022-10-23T02:15:32.053Z,99837.75
2022-10-23T02:16:03.502Z,99841.63
2022-10-23T02:16:34.939Z,99839.69
2022-10-23T02:17:06.378Z,99834.72
2022-10-23T02:17:37.841Z,99828.13
2022-10-23T02:18:09.244Z,99837.47
2022-10-23T02:18:40.666Z,99835.84
2022-10-23T02:19:12.094Z,99837.75
2022-10-23T02:19:43.526Z,99838.56
2022-10-23T02:20:14.954Z,99835.84
2022-10-23T02:20:46.339Z,99833.91
2022-10-23T02:21:17.769Z,99839.38
2022-10-23T02:21:49.193Z,99836.34
2022-10-23T02:22:20.705Z,99830.88
2022-10-23T02:22:52.087Z,99832.78
2022-10-23T02:23:23.523Z,99828.44
2022-10-23T02:23:56.208Z,99823.78
2022-10-23T02:24:27.906Z,99821.34
2022-10-23T02:24:59.360Z,99822.16
2022-10-23T02:25:30.748Z,99832.78
2022-10-23T02:26:02.102Z,99828.13
2022-10-23T02:26:33.627Z,99819.44
2022-10-23T02:27:05.030Z,99826.50
2022-10-23T02:27:36.446Z,99822.66
2022-10-23T02:28:07.842Z,99822.66
2022-10-23T02:28:39.255Z,99818.81
2022-10-23T02:29:10.728Z,99825.09
2022-10-23T02:29:42.194Z,99827.81
2022-10-23T02:30:13.620Z,99817.69
2022-10-23T02:30:45.058Z,99822.66
2022-10-23T02:31:16.504Z,99819.94
2022-10-23T02:31:48.038Z,99824.28
2022-10-23T02:32:19.426Z,99820.75
2022-10-23T02:32:50.918Z,99820.75
2022-10-23T02:33:22.366Z,99816.06
2022-10-23T02:33:53.784Z,99817.69
2022-10-23T02:34:25.223Z,99815.78
2022-10-23T02:34:56.661Z,99807.88
2022-10-23T02:35:28.065Z,99805.44
2022-10-23T02:35:59.453Z,99813.66
2022-10-23T02:36:30.871Z,99811.22
2022-10-23T02:37:02.343Z,99812.84
2022-10-23T02:37:33.737Z,99807.06
2022-10-23T02:38:05.142Z,99812.22
2022-10-23T02:38:36.603Z,99807.38
2022-10-23T02:39:08.149Z,99810.91
2022-10-23T02:39:39.618Z,99805.44
2022-10-23T02:40:11.198Z,99812.03
2022-10-23T02:40:42.698Z,99803.81
2022-10-23T02:41:14.227Z,99812.84
2022-10-23T02:41:45.656Z,99813.66
2022-10-23T02:42:17.041Z,99806.56
2022-10-23T02:42:48.439Z,99810.91
2022-10-23T02:43:19.937Z,99813.66
2022-10-23T02:43:51.360Z,99810.09
2022-10-23T02:44:22.745Z,99806.56
2022-10-23T02:44:54.206Z,99803.81
2022-10-23T02:45:25.649Z,99801.91
2022-10-23T02:45:57.143Z,99805.44
2022-10-23T02:46:28.578Z,99810.59
2022-10-23T02:47:00.041Z,99806.25
2022-10-23T02:47:31.462Z,99806.25
2022-10-23T02:48:02.879Z,99809.00
2022-10-23T02:48:34.317Z,99810.59
2022-10-23T02:49:05.723Z,99806.25
2022-10-23T02:49:37.169Z,99808.19
2022-10-23T02:50:08.548Z,99810.91
2022-10-23T02:50:40.031Z,99799.16
2022-10-23T02:51:11.448Z,99801.91
2022-10-23T02:51:42.889Z,99803.81
2022-10-23T02:52:14.275Z,99802.72
2022-10-23T02:52:45.687Z,99795.63
2022-10-23T02:53:17.135Z,99799.97
2022-10-23T02:53:48.571Z,99795.31
2022-10-23T02:54:20.071Z,99790.66
2022-10-23T02:54:51.651Z,99791.75
2022-10-23T02:55:23.132Z,99786.59
2022-10-23T02:55:54.691Z,99795.63
2022-10-23T02:56:26.164Z,99786.59
2022-10-23T02:56:57.580Z,99790.16
2022-10-23T02:57:28.963Z,99780.00
2022-10-23T02:58:00.387Z,99795.31
2022-10-23T02:58:31.811Z,99787.09
2022-10-23T02:59:03.269Z,99789.03
2022-10-23T02:59:34.680Z,99785.19
2022-10-23T03:00:06.078Z,99784.38
2022-10-23T03:00:37.531Z,99777.28
2022-10-23T03:01:09.013Z,99783.88
2022-10-23T03:01:40.471Z,99793.19
2022-10-23T03:02:12.059Z,99786.91
2022-10-23T03:02:43.621Z,99784.16
2022-10-23T03:03:15.007Z,99784.38
2022-10-23T03:03:46.415Z,99776.16
2022-10-23T03:04:17.940Z,99782.75
2022-10-23T03:04:49.370Z,99783.88
2022-10-23T03:05:20.793Z,99782.75
2022-10-23T03:05:52.213Z,99781.13
2022-10-23T03:06:23.654Z,99778.69
2022-10-23T03:06:55.044Z,99783.34
2022-10-23T03:07:26.496Z,99774.84
2022-10-23T03:07:57.936Z,99776.78
2022-10-23T03:08:29.341Z,99782.75
2022-10-23T03:09:00.768Z,99779.19
2022-10-23T03:09:32.244Z,99779.19
2022-10-23T03:10:03.670Z,99778.91
2022-10-23T03:10:35.171Z,99778.91
2022-10-23T03:11:06.596Z,99780.00
2022-10-23T03:11:38.025Z,99785.47
2022-10-23T03:12:09.378Z,99781.31
2022-10-23T03:12:41.190Z,99778.91
2022-10-23T03:13:12.860Z,99781.94
2022-10-23T03:13:44.331Z,99787.41
2022-10-23T03:14:15.734Z,99780.31
2022-10-23T03:14:47.204Z,99779.50
2022-10-23T03:15:18.637Z,99787.41
2022-10-23T03:15:50.032Z,99781.63
2022-10-23T03:16:21.460Z,99783.56
2022-10-23T03:16:52.872Z,99783.88
2022-10-23T03:17:24.318Z,99780.81
2022-10-23T03:17:55.737Z,99777.28
2022-10-23T03:18:27.146Z,99782.75
2022-10-23T03:18:58.659Z,99781.13
2022-10-23T03:19:30.126Z,99784.97
2022-10-23T03:20:01.570Z,99786.09
2022-10-23T03:20:32.959Z,99780.63
2022-10-23T03:21:04.358Z,99787.72
2022-10-23T03:21:35.811Z,99787.72
2022-10-23T03:22:07.233Z,99786.59
2022-10-23T03:22:38.706Z,99790.97
2022-10-23T03:23:10.096Z,99785.47
2022-10-23T03:23:41.483Z,99789.03
2022-10-23T03:24:12.952Z,99785.47
2022-10-23T03:24:44.407Z,99789.03
2022-10-23T03:25:15.873Z,99790.16
2022-10-23T03:25:47.291Z,99781.44
2022-10-23T03:26:18.664Z,99780.81
2022-10-23T03:26:50.110Z,99783.56
2022-10-23T03:27:21.587Z,99782.75
2022-10-23T03:27:53.095Z,99775.66
2022-10-23T03:28:24.600Z,99782.75
2022-10-23T03:28:56.056Z,99785.78
2022-10-23T03:29:27.570Z,99777.59
2022-10-23T03:29:59.186Z,99771.81
2022-10-23T03:30:30.677Z,99774.53
2022-10-23T03:31:02.153Z,99765.53
2022-10-23T03:31:33.793Z,99772.91
2022-10-23T03:32:05.294Z,99770.50
2022-10-23T03:32:36.753Z,99760.38
2022-10-23T03:33:08.235Z,99762.28
2022-10-23T03:33:39.745Z,99763.09
2022-10-23T03:34:11.189Z,99752.97
2022-10-23T03:34:42.797Z,99749.72
2022-10-23T03:35:14.331Z,99752.97
2022-10-23T03:35:45.773Z,99752.16
2022-10-23T03:36:17.261Z,99751.84
2022-10-23T03:36:48.648Z,99751.03
2022-10-23T03:37:20.087Z,99752.97
2022-10-23T03:37:51.616Z,99757.63
2022-10-23T03:38:23.010Z,99758.44
2022-10-23T03:38:54.387Z,99749.13
2022-10-23T03:39:25.819Z,99749.41
2022-10-23T03:39:57.287Z,99750.53
2022-10-23T03:40:28.755Z,99751.34
2022-10-23T03:41:00.186Z,99756.00
2022-10-23T03:41:31.755Z,99754.91
2022-10-23T03:42:03.125Z,99754.59
2022-10-23T03:42:34.540Z,99755.41
2022-10-23T03:43:05.939Z,99755.41
2022-10-23T03:43:37.376Z,99755.41
2022-10-23T03:44:08.834Z,99760.38
2022-10-23T03:44:40.285Z,99764.72
2022-10-23T03:45:11.768Z,99755.41
2022-10-23T03:45:43.148Z,99763.59
2022-10-23T03:46:14.642Z,99761.97
2022-10-23T03:46:46.073Z,99758.63
2022-10-23T03:47:17.489Z,99761.69
2022-10-23T03:47:48.905Z,99761.69
2022-10-23T03:48:20.364Z,99757.00
2022-10-23T03:48:51.759Z,99754.28
2022-10-23T03:49:23.177Z,99753.78
2022-10-23T03:49:54.566Z,99758.94
2022-10-23T03:50:26.107Z,99756.19
2022-10-23T03:50:57.553Z,99751.84
2022-10-23T03:51:28.993Z,99751.03
2022-10-23T03:52:00.346Z,99751.84
2022-10-23T03:52:31.732Z,99747.81
2022-10-23T03:53:03.118Z,99750.53
2022-10-23T03:53:34.550Z,99746.19
2022-10-23T03:54:05.979Z,99746.69
2022-10-23T03:54:37.433Z,99741.72
2022-10-23T03:55:08.811Z,99744.25
2022-10-23T03:55:40.330Z,99743.13
2022-10-23T03:56:11.782Z,99743.94
2022-10-23T03:56:43.191Z,99738.78
2022-10-23T03:57:14.656Z,99744.25
2022-10-23T03:57:46.074Z,99740.41
2022-10-23T03:58:17.533Z,99736.56
2022-10-23T03:58:49.010Z,99741.22
2022-10-23T03:59:20.449Z,99741.53
2022-10-23T03:59:51.856Z,99737.16
2022-10-23T04:00:23.252Z,99734.75
2022-10-23T04:00:54.738Z,99736.34
2022-10-23T04:01:26.200Z,99733.63
2022-10-23T04:01:57.931Z,99729.78
2022-10-23T04:02:29.465Z,99728.66
2022-10-23T04:03:00.906Z,99722.38
2022-10-23T04:03:32.383Z,99727.03
2022-10-23T04:04:03.855Z,99725.13
2022-10-23T04:04:35.252Z,99724.31
2022-10-23T04:05:06.629Z,99714.16
2022-10-23T04:05:38.089Z,99724.31
2022-10-23T04:06:09.549Z,99720.75
2022-10-23T04:06:41.014Z,99716.91
2022-10-23T04:07:12.587Z,99718.84
2022-10-23T04:07:43.994Z,99713.06
2022-10-23T04:08:19.166Z,99716.91
2022-10-23T04:08:51.602Z,99716.09
2022-10-23T04:09:23.059Z,99713.34
2022-10-23T04:09:54.495Z,99710.63
2022-10-23T04:10:25.868Z,99710.63
2022-10-23T04:10:57.386Z,99716.91
2022-10-23T04:11:28.879Z,99710.63
2022-10-23T04:12:00.302Z,99716.09
2022-10-23T04:12:31.743Z,99709.81
2022-10-23T04:13:03.118Z,99718.53
2022-10-23T04:13:34.572Z,99721.56
2022-10-23T04:14:05.995Z,99716.09
2022-10-23T04:14:37.399Z,99719.94
2022-10-23T04:15:08.784Z,99710.94
2022-10-23T04:15:40.171Z,99717.53
2022-10-23T04:16:11.716Z,99717.22
2022-10-23T04:16:43.145Z,99710.63
2022-10-23T04:17:14.754Z,99709.81
2022-10-23T04:17:46.205Z,99714.47
2022-10-23T04:18:17.607Z,99714.78
2022-10-23T04:18:49.037Z,99718.34
2022-10-23T04:19:20.678Z,99712.56
2022-10-23T04:19:52.167Z,99707.38
2022-10-23T04:20:23.570Z,99711.75
2022-10-23T04:20:54.936Z,99709.81
2022-10-23T04:21:26.402Z,99707.38
2022-10-23T04:21:57.799Z,99704.66
2022-10-23T04:22:29.210Z,99701.91
2022-10-23T04:23:00.648Z,99706.28
2022-10-23T04:23:32.067Z,99711.44
2022-10-23T04:24:03.586Z,99700.81
2022-10-23T04:24:35.021Z,99697.44
2022-10-23T04:25:06.431Z,99706.78
2022-10-23T04:25:37.940Z,99708.69
2022-10-23T04:26:09.438Z,99705.97
2022-10-23T04:26:40.932Z,99707.59
2022-10-23T04:27:12.344Z,99713.88
2022-10-23T04:27:43.942Z,99715.78
2022-10-23T04:28:15.628Z,99713.88
2022-10-23T04:28:47.041Z,99716.59
2022-10-23T04:29:18.435Z,99716.59
2022-10-23T04:29:49.856Z,99722.06
2022-10-23T04:30:21.262Z,99721.56
2022-10-23T04:30:52.866Z,99728.66
2022-10-23T04:31:24.315Z,99727.84
2022-10-23T04:31:55.741Z,99722.06
2022-10-23T04:32:27.191Z,99729.97
2022-10-23T04:32:58.614Z,99722.88
2022-10-23T04:33:30.104Z,99727.53
2022-10-23T04:34:01.635Z,99725.91
2022-10-23T04:34:33.093Z,99724.81
2022-10-23T04:35:04.536Z,99717.41
2022-10-23T04:35:35.932Z,99725.63
2022-10-23T04:36:07.354Z,99730.28
2022-10-23T04:36:38.771Z,99722.38
2022-10-23T04:37:10.229Z,99717.72
2022-10-23T04:37:41.915Z,99723.19
2022-10-23T04:38:13.604Z,99713.88
2022-10-23T04:38:45.011Z,99715.78
2022-10-23T04:39:16.454Z,99720.44
2022-10-23T04:39:47.855Z,99725.13
2022-10-23T04:40:19.295Z,99728.16
2022-10-23T04:40:50.742Z,99728.66
2022-10-23T04:41:22.181Z,99722.69
2022-10-23T04:41:53.577Z,99723.81
2022-10-23T04:42:25.105Z,99719.44
2022-10-23T04:42:56.544Z,99715.59
2022-10-23T04:43:27.980Z,99718.34
2022-10-23T04:43:59.373Z,99712.84
2022-10-23T04:44:30.809Z,99711.75
2022-10-23T04:45:02.232Z,99715.28
2022-10-23T04:45:33.675Z,99714.47
2022-10-23T04:46:05.116Z,99709.31
2022-10-23T04:46:36.511Z,99709.31
2022-10-23T04:47:07.915Z,99707.38
2022-10-23T04:47:39.381Z,99707.38
2022-10-23T04:48:10.804Z,99708.19
2022-10-23T04:48:42.265Z,99702.72
2022-10-23T04:49:13.736Z,99705.47
2022-10-23T04:49:45.180Z,99703.53
2022-10-23T04:50:16.731Z,99701.91
2022-10-23T04:50:48.220Z,99705.47
2022-10-23T04:51:19.655Z,99706.28
2022-10-23T04:51:51.135Z,99708.38
2022-10-23T04:52:22.597Z,99705.16
2022-10-23T04:52:53.964Z,99711.44
2022-10-23T04:53:25.358Z,99710.63
2022-10-23T04:53:56.759Z,99705.47
2022-10-23T04:54:28.157Z,99705.78
2022-10-23T04:54:59.560Z,99708.19
2022-10-23T04:55:31.009Z,99707.09
2022-10-23T04:56:02.520Z,99706.28
2022-10-23T04:56:33.932Z,99701.91
2022-10-23T04:57:05.393Z,99700.81
2022-10-23T04:57:36.803Z,99698.06
2022-10-23T04:58:08.254Z,99696.44
2022-10-23T04:58:39.687Z,99703.84
2022-10-23T04:59:11.141Z,99696.44
2022-10-23T04:59:42.583Z,99701.91
2022-10-23T05:00:14.002Z,99698.06
2022-10-23T05:00:45.451Z,99690.97
2022-10-23T05:01:17.065Z,99696.94
2022-10-23T05:01:48.604Z,99690.66
2022-10-23T05:02:20.067Z,99695.34
2022-10-23T05:02:51.464Z,99695.03
2022-10-23T05:03:22.892Z,99693.41
2022-10-23T05:03:54.276Z,99689.84
2022-10-23T05:04:25.690Z,99689.84
2022-10-23T05:04:57.119Z,99691.78
2022-10-23T05:05:28.587Z,99686.31
2022-10-23T05:06:00.022Z,99688.25
2022-10-23T05:06:31.480Z,99682.78
2022-10-23T05:07:02.907Z,99682.78
2022-10-23T05:07:34.347Z,99685.50
2022-10-23T05:08:05.776Z,99685.50
2022-10-23T05:08:37.220Z,99685.50
2022-10-23T05:09:08.635Z,99684.38
2022-10-23T05:09:40.035Z,99678.91
2022-10-23T05:10:11.464Z,99686.00
2022-10-23T05:10:43.010Z,99680.84
2022-10-23T05:11:14.533Z,99680.03
2022-10-23T05:11:45.952Z,99678.13
2022-10-23T05:12:17.359Z,99688.25
2022-10-23T05:12:48.783Z,99680.03
2022-10-23T05:13:20.189Z,99683.28
2022-10-23T05:13:51.635Z,99679.72
2022-10-23T05:14:23.128Z,99680.53
2022-10-23T05:14:54.678Z,99684.09
2022-10-23T05:15:26.198Z,99676.19
2022-10-23T05:15:57.688Z,99673.13
2022-10-23T05:16:29.186Z,99677.00
2022-10-23T05:17:00.559Z,99673.94
2022-10-23T05:17:31.969Z,99669.91
2022-10-23T05:18:03.461Z,99666.38
2022-10-23T05:18:34.903Z,99669.91
2022-10-23T05:19:06.434Z,99666.06
2022-10-23T05:19:37.814Z,99659.78
2022-10-23T05:20:09.214Z,99659.47
2022-10-23T05:20:40.605Z,99659.97
2022-10-23T05:21:12.078Z,99663.00
2022-10-23T05:21:43.526Z,99663.00
2022-10-23T05:22:14.891Z,99664.13
2022-10-23T05:22:46.283Z,99668.47
2022-10-23T05:23:17.682Z,99668.47
2022-10-23T05:23:49.206Z,99663.00
2022-10-23T05:24:20.653Z,99668.97
2022-10-23T05:24:52.054Z,99667.34
2022-10-23T05:25:23.474Z,99660.78
2022-10-23T05:25:54.919Z,99665.13
2022-10-23T05:26:26.361Z,99663.50
2022-10-23T05:26:58.030Z,99663.50
2022-10-23T05:27:29.503Z,99666.25
2022-10-23T05:28:00.911Z,99661.09
2022-10-23T05:28:32.394Z,99663.81
2022-10-23T05:29:03.880Z,99657.53
2022-10-23T05:29:35.324Z,99657.53
2022-10-23T05:30:06.818Z,99653.19
2022-10-23T05:30:38.222Z,99660.59
2022-10-23T05:31:09.769Z,99661.41
2022-10-23T05:31:41.236Z,99651.56
2022-10-23T05:32:12.860Z,99648.84
2022-10-23T05:32:44.822Z,99655.13
2022-10-23T05:33:16.654Z,99656.22
2022-10-23T05:33:48.114Z,99656.22
2022-10-23T05:34:19.573Z,99657.03
2022-10-23T05:34:51.022Z,99662.50
2022-10-23T05:35:22.437Z,99664.44
2022-10-23T05:35:53.897Z,99665.25
2022-10-23T05:36:25.468Z,99672.63
2022-10-23T05:36:56.943Z,99663.63
2022-10-23T05:37:28.383Z,99663.63
2022-10-23T05:37:59.834Z,99667.97
2022-10-23T05:38:31.243Z,99666.06
2022-10-23T05:39:02.666Z,99664.44
2022-10-23T05:39:34.148Z,99669.09
2022-10-23T05:40:05.696Z,99675.06
2022-10-23T05:40:37.134Z,99673.13
2022-10-23T05:41:08.560Z,99672.34
2022-10-23T05:41:40.012Z,99670.72
2022-10-23T05:42:11.460Z,99668.59
2022-10-23T05:42:43.162Z,99667.47
2022-10-23T05:43:14.851Z,99666.38
2022-10-23T05:43:46.327Z,99667.16
2022-10-23T05:44:17.742Z,99658.97
2022-10-23T05:44:49.149Z,99671.84
2022-10-23T05:45:20.591Z,99666.66
2022-10-23T05:45:51.974Z,99671.34
2022-10-23T05:46:23.365Z,99670.22
2022-10-23T05:46:54.715Z,99667.97
2022-10-23T05:47:26.141Z,99677.31
2022-10-23T05:48:05.819Z,99665.88
2022-10-23T05:48:48.551Z,99666.66
2022-10-23T05:49:20.041Z,99662.50
2022-10-23T05:49:51.458Z,99660.91
2022-10-23T05:50:22.843Z,99658.97
2022-10-23T05:50:54.294Z,99666.38
2022-10-23T05:51:25.767Z,99659.28
2022-10-23T05:51:57.252Z,99660.09
2022-10-23T05:52:28.743Z,99665.88
2022-10-23T05:53:00.196Z,99655.72
2022-10-23T05:53:31.631Z,99662.00
2022-10-23T05:54:03.053Z,99662.81
2022-10-23T05:54:34.473Z,99669.09
2022-10-23T05:55:05.908Z,99659.47
2022-10-23T05:55:37.283Z,99658.97
2022-10-23T05:56:08.664Z,99662.81
2022-10-23T05:56:40.053Z,99662.50
2022-10-23T05:57:11.489Z,99658.97
2022-10-23T05:57:43.189Z,99653.50
2022-10-23T05:58:14.709Z,99663.31
2022-10-23T05:58:46.162Z,99657.03
2022-10-23T05:59:20.463Z,99653.50
2022-10-23T05:59:54.371Z,99657.34
2022-10-23T06:00:25.790Z,99654.31
2022-10-23T06:00:57.277Z,99657.03
2022-10-23T06:01:28.808Z,99655.41
2022-10-23T06:02:00.527Z,99658.47
2022-10-23T06:02:32.068Z,99654.91
2022-10-23T06:03:03.526Z,99658.16
2022-10-23T06:03:34.944Z,99660.91
2022-10-23T06:04:06.355Z,99664.44
2022-10-23T06:04:37.753Z,99660.09
2022-10-23T06:05:09.230Z,99662.00
2022-10-23T06:05:40.673Z,99660.91
2022-10-23T06:06:12.052Z,99655.72
2022-10-23T06:06:43.488Z,99662.00
2022-10-23T06:07:14.906Z,99657.66
2022-10-23T06:07:46.613Z,99656.53
2022-10-23T06:08:18.233Z,99660.09
2022-10-23T06:08:49.700Z,99658.16
2022-10-23T06:09:21.135Z,99655.72
2022-10-23T06:09:52.625Z,99659.28
2022-10-23T06:10:24.023Z,99655.72
2022-10-23T06:10:55.436Z,99656.53